createdAt,value
2019-03-28T00:01:21.995Z,103067.73
2019-03-28T00:06:16.085Z,103058.48
2019-03-28T00:11:10.053Z,103060.66
2019-03-28T00:16:04.151Z,103063.34
2019-03-28T00:20:58.230Z,103054.09
2019-03-28T00:25:52.235Z,103053.66
2019-03-28T00:30:48.277Z,103052.33
2019-03-28T00:35:42.240Z,103051.08
2019-03-28T00:40:36.351Z,103047.44
2019-03-28T00:45:31.213Z,103051.30
2019-03-28T00:50:25.424Z,103052.08
2019-03-28T00:55:19.520Z,103058.34
2019-03-28T01:00:14.519Z,103060.27
2019-03-28T01:05:08.765Z,103058.27
2019-03-28T01:10:04.125Z,103056.45
2019-03-28T01:14:58.182Z,103059.73
2019-03-28T01:19:52.083Z,103047.51
2019-03-28T01:24:46.058Z,103043.22
2019-03-28T01:29:40.011Z,103043.33
2019-03-28T01:34:33.952Z,103045.25
2019-03-28T01:39:27.932Z,103039.82
2019-03-28T01:44:22.030Z,103033.70
2019-03-28T01:49:15.988Z,103037.11
2019-03-28T01:54:10.022Z,103037.57
2019-03-28T01:59:04.008Z,103028.31
2019-03-28T02:03:57.968Z,103026.95
2019-03-28T02:08:52.032Z,103026.84
2019-03-28T02:13:46.102Z,103025.88
2019-03-28T02:18:40.052Z,103028.70
2019-03-28T02:23:34.039Z,103027.95
2019-03-28T02:28:28.130Z,103035.17
2019-03-28T02:33:22.129Z,103028.45
2019-03-28T02:38:16.094Z,103027.13
2019-03-28T02:43:10.310Z,103030.98
2019-03-28T02:48:04.365Z,103030.95
2019-03-28T02:52:58.330Z,103036.70
2019-03-28T02:57:52.318Z,103034.45
2019-03-28T03:02:46.260Z,103031.30
2019-03-28T03:07:41.643Z,103035.67
2019-03-28T03:12:35.878Z,103035.23
2019-03-28T03:17:29.848Z,103045.25
2019-03-28T03:22:23.835Z,103059.80
2019-03-28T03:27:17.804Z,103058.95
2019-03-28T03:32:11.767Z,103057.36
2019-03-28T03:37:05.886Z,103065.34
2019-03-28T03:41:59.829Z,103060.13
2019-03-28T03:46:54.064Z,103066.38
2019-03-28T03:51:48.059Z,103066.63
2019-03-28T03:56:42.055Z,103069.20
2019-03-28T04:01:36.039Z,103066.20
2019-03-28T04:06:29.995Z,103074.14
2019-03-28T04:11:23.973Z,103070.17
2019-03-28T04:16:17.963Z,103076.72
2019-03-28T04:21:12.057Z,103080.26
2019-03-28T04:26:06.222Z,103082.01
2019-03-28T04:31:00.446Z,103089.84
2019-03-28T04:35:54.405Z,103084.11
2019-03-28T04:40:48.463Z,103087.98
2019-03-28T04:45:42.396Z,103096.10
2019-03-28T04:50:36.374Z,103096.98
2019-03-28T04:55:30.863Z,103098.64
2019-03-28T05:00:24.823Z,103101.28
2019-03-28T05:05:18.805Z,103112.13
2019-03-28T05:10:12.956Z,103112.52
2019-03-28T05:15:08.632Z,103113.48
2019-03-28T05:20:04.415Z,103108.77
2019-03-28T05:24:58.728Z,103115.34
2019-03-28T05:29:52.883Z,103116.59
2019-03-28T05:34:46.937Z,103122.10
2019-03-28T05:39:41.175Z,103117.20
2019-03-28T05:44:35.135Z,103124.54
2019-03-28T05:49:29.301Z,103129.37
2019-03-28T05:54:23.281Z,103126.58
2019-03-28T05:59:17.445Z,103131.02
2019-03-28T06:04:11.410Z,103127.14
2019-03-28T06:09:05.993Z,103127.96
2019-03-28T06:13:59.984Z,103125.84
2019-03-28T06:18:53.957Z,103133.04
2019-03-28T06:23:48.005Z,103135.65
2019-03-28T06:28:41.975Z,103138.66
2019-03-28T06:33:38.344Z,103137.94
2019-03-28T06:38:31.806Z,103143.77
2019-03-28T06:43:25.888Z,103139.13
2019-03-28T06:48:19.858Z,103137.43
2019-03-28T06:53:13.830Z,103134.81
2019-03-28T06:58:07.829Z,103137.43
2019-03-28T07:03:01.814Z,103135.64
2019-03-28T07:07:55.918Z,103148.27
2019-03-28T07:12:49.919Z,103147.30
2019-03-28T07:17:43.894Z,103147.73
2019-03-28T07:22:38.280Z,103142.49
2019-03-28T07:27:32.950Z,103146.31
2019-03-28T07:32:27.123Z,103143.91
2019-03-28T07:37:21.117Z,103142.11
2019-03-28T07:42:15.203Z,103139.05
2019-03-28T07:47:09.251Z,103146.89
2019-03-28T07:52:03.324Z,103141.96
2019-03-28T07:56:57.583Z,103139.52
2019-03-28T08:01:51.647Z,103146.98
2019-03-28T08:06:49.934Z,103145.62
2019-03-28T08:11:41.727Z,103146.14
2019-03-28T08:16:35.810Z,103145.88
2019-03-28T08:21:29.915Z,103140.27
2019-03-28T08:26:23.891Z,103144.78
2019-03-28T08:31:17.893Z,103146.98
2019-03-28T08:36:13.144Z,103168.09
2019-03-28T08:41:07.430Z,103165.80
2019-03-28T08:46:01.853Z,103169.16
2019-03-28T08:50:55.944Z,103175.30
2019-03-28T08:55:50.019Z,103183.45
2019-03-28T09:00:52.407Z,103187.74
2019-03-28T09:05:40.083Z,103191.44
2019-03-28T09:10:34.267Z,103197.23
2019-03-28T09:15:28.234Z,103198.73
2019-03-28T09:20:22.215Z,103205.33
2019-03-28T09:25:16.194Z,103206.23
2019-03-28T09:30:10.904Z,103205.11
2019-03-28T09:35:05.527Z,103205.13
2019-03-28T09:39:59.483Z,103210.98
2019-03-28T09:44:53.456Z,103214.86
2019-03-28T09:49:47.441Z,103208.83
2019-03-28T09:54:41.520Z,103199.67
2019-03-28T09:59:35.516Z,103199.50
2019-03-28T10:04:29.573Z,103210.46
2019-03-28T10:09:23.642Z,103201.45
2019-03-28T10:14:17.598Z,103198.00
2019-03-28T10:19:11.890Z,103188.50
2019-03-28T10:24:06.484Z,103195.91
2019-03-28T10:29:00.567Z,103192.97
2019-03-28T10:33:55.036Z,103200.63
2019-03-28T10:38:49.008Z,103198.18
2019-03-28T10:43:42.976Z,103196.20
2019-03-28T10:48:36.974Z,103207.62
2019-03-28T10:53:30.949Z,103199.48
2019-03-28T10:58:25.093Z,103192.84
2019-03-28T11:03:19.094Z,103195.74
2019-03-28T11:08:13.065Z,103186.98
2019-03-28T11:13:09.610Z,103190.48
2019-03-28T11:18:03.156Z,103187.86
2019-03-28T11:22:57.123Z,103185.58
2019-03-28T11:27:51.120Z,103169.51
2019-03-28T11:32:45.199Z,103169.83
2019-03-28T11:37:39.332Z,103161.14
2019-03-28T11:42:33.308Z,103158.79
2019-03-28T11:47:27.333Z,103146.72
2019-03-28T11:52:21.415Z,103147.45
2019-03-28T11:57:15.963Z,103146.16
2019-03-28T12:02:19.554Z,103154.50
2019-03-28T12:07:06.209Z,103158.37
2019-03-28T12:12:00.200Z,103153.41
2019-03-28T12:16:54.359Z,103151.14
2019-03-28T12:21:48.553Z,103147.51
2019-03-28T12:26:42.532Z,103140.05
2019-03-28T12:31:36.605Z,103131.06
2019-03-28T12:36:30.711Z,103133.76
2019-03-28T12:41:24.705Z,103131.17
2019-03-28T12:46:18.683Z,103132.72
2019-03-28T12:51:12.764Z,103128.24
2019-03-28T12:56:07.030Z,103124.46
2019-03-28T13:01:01.020Z,103121.16
2019-03-28T13:05:55.120Z,103111.08
2019-03-28T13:10:49.200Z,103107.20
2019-03-28T13:15:43.137Z,103101.58
2019-03-28T13:20:37.239Z,103099.59
2019-03-28T13:25:31.417Z,103094.91
2019-03-28T13:30:25.656Z,103097.66
2019-03-28T13:35:19.634Z,103089.69
2019-03-28T13:40:13.710Z,103089.09
2019-03-28T13:45:09.020Z,103086.53
2019-03-28T13:50:08.150Z,103081.63
2019-03-28T13:55:03.916Z,103080.77
2019-03-28T13:59:58.097Z,103084.16
2019-03-28T14:04:52.546Z,103076.91
2019-03-28T14:09:46.620Z,103075.48
2019-03-28T14:14:40.616Z,103072.80
2019-03-28T14:19:34.642Z,103067.13
2019-03-28T14:24:28.602Z,103071.36
2019-03-28T14:29:22.565Z,103067.13
2019-03-28T14:34:16.527Z,103061.61
2019-03-28T14:39:10.544Z,103064.97
2019-03-28T14:44:04.514Z,103059.23
2019-03-28T14:48:58.575Z,103070.59
2019-03-28T14:53:52.511Z,103058.83
2019-03-28T14:58:48.244Z,103065.38
2019-03-28T15:03:42.250Z,103063.86
2019-03-28T15:08:36.236Z,103056.09
2019-03-28T15:13:30.364Z,103053.97
2019-03-28T15:18:24.372Z,103049.89
2019-03-28T15:23:18.453Z,103043.42
2019-03-28T15:28:12.448Z,103031.05
2019-03-28T15:33:06.459Z,103039.90
2019-03-28T15:38:00.549Z,103036.09
2019-03-28T15:42:54.524Z,103030.10
2019-03-28T15:47:51.837Z,103031.38
2019-03-28T15:52:44.533Z,103023.47
2019-03-28T15:57:40.796Z,103018.12
2019-03-28T16:02:34.556Z,103021.58
2019-03-28T16:07:29.578Z,103026.56
2019-03-28T16:12:23.750Z,103028.93
2019-03-28T16:17:17.861Z,103029.02
2019-03-28T16:22:12.014Z,103028.34
2019-03-28T16:27:06.138Z,103032.23
2019-03-28T16:32:00.252Z,103025.75
2019-03-28T16:36:54.253Z,103033.19
2019-03-28T16:41:48.373Z,103030.70
2019-03-28T16:46:42.434Z,103038.55
2019-03-28T16:51:36.440Z,103045.25
2019-03-28T16:56:30.565Z,103038.55
2019-03-28T17:01:24.576Z,103031.28
2019-03-28T17:06:19.179Z,103025.94
2019-03-28T17:11:13.203Z,103032.50
2019-03-28T17:16:07.317Z,103034.66
2019-03-28T17:21:01.500Z,103038.38
2019-03-28T17:25:55.727Z,103041.23
2019-03-28T17:30:49.835Z,103046.44
2019-03-28T17:35:43.930Z,103046.77
2019-03-28T17:40:37.912Z,103044.44
2019-03-28T17:45:31.899Z,103047.77
2019-03-28T17:50:25.935Z,103051.56
2019-03-28T17:55:20.002Z,103043.02
2019-03-28T18:00:14.214Z,103041.55
2019-03-28T18:05:10.847Z,103038.52
2019-03-28T18:10:05.192Z,103044.35
2019-03-28T18:14:59.328Z,103050.16
2019-03-28T18:19:53.539Z,103052.84
2019-03-28T18:24:47.552Z,103053.13
2019-03-28T18:29:41.634Z,103055.90
2019-03-28T18:34:35.744Z,103054.42
2019-03-28T18:39:29.817Z,103059.50
2019-03-28T18:44:23.833Z,103058.88
2019-03-28T18:49:17.931Z,103064.52
2019-03-28T18:54:12.019Z,103062.84
2019-03-28T18:59:06.409Z,103060.88
2019-03-28T19:04:00.417Z,103058.28
2019-03-28T19:08:54.590Z,103059.84
2019-03-28T19:13:48.584Z,103063.36
2019-03-28T19:18:42.725Z,103059.73
2019-03-28T19:23:37.253Z,103061.54
2019-03-28T19:28:31.310Z,103056.91
2019-03-28T19:33:25.310Z,103064.64
2019-03-28T19:38:19.429Z,103060.63
2019-03-28T19:43:20.392Z,103056.69
2019-03-28T19:48:09.426Z,103045.66
2019-03-28T19:53:03.602Z,103059.11
2019-03-28T19:57:57.721Z,103049.31
2019-03-28T20:02:51.763Z,103046.23
2019-03-28T20:07:46.031Z,103041.16
2019-03-28T20:12:40.103Z,103040.23
2019-03-28T20:17:34.298Z,103037.13
2019-03-28T20:22:28.298Z,103034.05
2019-03-28T20:27:23.074Z,103046.33
2019-03-28T20:32:17.448Z,103045.66
2019-03-28T20:37:11.735Z,103051.38
2019-03-28T20:42:06.162Z,103057.03
2019-03-28T20:47:00.211Z,103054.13
2019-03-28T20:51:54.310Z,103050.98
2019-03-28T20:56:48.568Z,103042.11
2019-03-28T21:01:42.744Z,103039.34
2019-03-28T21:06:36.935Z,103040.84
2019-03-28T21:11:30.902Z,103040.05
2019-03-28T21:16:25.037Z,103045.20
2019-03-28T21:21:19.064Z,103047.80
2019-03-28T21:26:13.158Z,103047.55
2019-03-28T21:31:07.281Z,103048.40
2019-03-28T21:36:01.394Z,103042.14
2019-03-28T21:40:55.567Z,103043.80
2019-03-28T21:45:49.681Z,103048.02
2019-03-28T21:50:43.674Z,103041.67
2019-03-28T21:55:37.770Z,103044.62
2019-03-28T22:00:32.080Z,103054.09
2019-03-28T22:05:28.624Z,103049.77
2019-03-28T22:10:22.107Z,103052.64
2019-03-28T22:15:16.234Z,103039.78
2019-03-28T22:20:10.350Z,103049.70
2019-03-28T22:25:05.591Z,103056.07
2019-03-28T22:29:59.721Z,103051.46
2019-03-28T22:34:53.769Z,103057.41
2019-03-28T22:39:49.803Z,103058.02
2019-03-28T22:44:43.922Z,103049.45
2019-03-28T22:49:37.908Z,103051.66
2019-03-28T22:54:31.981Z,103050.41
2019-03-28T22:59:26.918Z,103050.55
2019-03-28T23:04:21.273Z,103051.98
2019-03-28T23:09:15.370Z,103046.80
2019-03-28T23:14:09.362Z,103046.63
2019-03-28T23:19:03.352Z,103044.95
2019-03-28T23:23:57.437Z,103042.05
2019-03-28T23:28:51.499Z,103037.75
2019-03-28T23:33:45.484Z,103036.25
2019-03-28T23:38:39.434Z,103032.86
2019-03-28T23:43:33.645Z,103030.79
2019-03-28T23:48:27.684Z,103033.53
2019-03-28T23:53:21.652Z,103031.45
2019-03-28T23:58:15.733Z,103030.22
